Time;durP1;ratioP1;P1;durP2;ratioP2;P2;SDS_P1;SDS_P2;PMS_P1;PMS_P2;Temp;Humidity;BMP_temperature;BMP_pressure;BME280_temperature;BME280_humidity;BME280_pressure;Samples;Min_cycle;Max_cycle;Signal;HPM_P1;HPM_P2
2023/09/02 00:00:33;;;;;;;5.22;2.33;;;;;;;21.76;70.18;98741.97;5093669;28;20111;-45
2023/09/02 00:02:59;;;;;;;4.13;2.40;;;;;;;21.78;70.80;98731.81;5093780;28;20393;-45
2023/09/02 00:05:25;;;;;;;3.42;2.72;;;;;;;21.79;70.37;98725.38;5093684;28;20024;-45
2023/09/02 00:07:51;;;;;;;10.15;3.78;;;;;;;21.77;70.70;98722.19;5094986;28;20027;-45
2023/09/02 00:10:16;;;;;;;6.40;3.38;;;;;;;21.81;70.99;98715.22;5093606;28;20055;-45
2023/09/02 00:12:42;;;;;;;5.00;2.50;;;;;;;21.89;70.80;98723.47;5094648;28;20031;-46
2023/09/02 00:15:08;;;;;;;7.38;3.75;;;;;;;21.81;70.52;98726.72;5095077;28;20062;-45
2023/09/02 00:17:35;;;;;;;6.70;3.35;;;;;;;21.72;70.79;98723.78;5094836;28;20549;-45
2023/09/02 00:20:02;;;;;;;4.28;2.75;;;;;;;21.70;71.16;98723.28;5094967;28;20425;-45
2023/09/02 00:22:31;;;;;;;4.85;2.55;;;;;;;21.67;71.15;98723.00;5076704;28;20425;-45
2023/09/02 00:24:56;;;;;;;4.43;2.55;;;;;;;21.74;70.72;98729.66;5094682;28;20055;-45
2023/09/02 00:27:22;;;;;;;8.80;2.70;;;;;;;21.80;70.74;98733.13;5094597;28;20505;-45
2023/09/02 00:29:48;;;;;;;7.30;2.58;;;;;;;21.81;70.63;98725.91;5094562;28;20023;-45
2023/09/02 00:32:13;;;;;;;5.65;2.75;;;;;;;21.73;70.68;98724.59;5093164;28;20150;-45
2023/09/02 00:34:39;;;;;;;5.03;2.50;;;;;;;21.75;70.83;98722.44;5094038;28;20027;-45
2023/09/02 00:37:05;;;;;;;11.40;3.97;;;;;;;21.77;70.80;98728.31;5092950;28;20050;-45
2023/09/02 00:39:31;;;;;;;3.67;2.55;;;;;;;21.77;70.96;98714.94;5094376;28;20024;-45
2023/09/02 00:41:59;;;;;;;8.20;3.03;;;;;;;21.75;70.91;98727.78;5094278;28;20027;-45
2023/09/02 00:44:25;;;;;;;7.30;3.47;;;;;;;21.81;71.44;98740.09;5094208;28;20497;-45
2023/09/02 00:46:51;;;;;;;5.10;2.70;;;;;;;21.84;71.26;98723.50;5094222;28;20099;-45
2023/09/02 00:49:17;;;;;;;6.20;2.90;;;;;;;21.76;71.14;98726.72;5094224;28;20482;-45
2023/09/02 00:51:43;;;;;;;5.68;2.50;;;;;;;21.70;71.35;98736.63;5076079;28;20040;-45
2023/09/02 00:54:09;;;;;;;4.25;2.50;;;;;;;21.68;71.72;98735.31;5094149;28;20559;-45
2023/09/02 00:56:35;;;;;;;11.23;10.23;;;;;;;21.70;71.91;98735.84;5094026;28;20133;-45
2023/09/02 00:59:03;;;;;;;8.35;5.07;;;;;;;21.64;71.93;98737.72;5094475;28;20028;-45
2023/09/02 01:01:32;;;;;;;6.45;3.28;;;;;;;21.69;72.04;98740.38;5092674;28;20043;-45
2023/09/02 01:03:58;;;;;;;7.20;2.88;;;;;;;21.74;71.77;98740.34;5092596;28;20024;-45
2023/09/02 01:06:24;;;;;;;7.72;3.50;;;;;;;21.78;72.46;98735.25;5093851;28;20070;-45
2023/09/02 01:08:50;;;;;;;7.45;3.00;;;;;;;21.78;71.84;98742.50;5092599;28;20059;-45
2023/09/02 01:11:16;;;;;;;10.70;7.78;;;;;;;21.82;71.77;98752.34;5093720;28;20039;-45
2023/09/02 01:13:41;;;;;;;7.35;4.47;;;;;;;21.83;71.66;98732.59;5092241;28;20044;-45
2023/09/02 01:16:07;;;;;;;13.25;12.00;;;;;;;21.72;71.81;98744.38;5093648;28;20020;-45
2023/09/02 01:18:33;;;;;;;16.40;13.85;;;;;;;21.65;71.96;98733.16;5093586;28;20073;-45
2023/09/02 01:21:36;;;;;;;5.40;4.15;;;;;;;21.61;72.04;98735.59;5093712;28;20019;-45
2023/09/02 01:24:13;;;;;;;4.43;2.30;;;;;;;21.65;72.26;98733.16;5093493;28;20089;-45
2023/09/02 01:27:20;;;;;;;12.38;7.65;;;;;;;21.60;72.34;98733.97;5093482;28;20118;-45
2023/09/02 01:29:55;;;;;;;3.92;2.60;;;;;;;21.63;71.99;98738.78;5085273;28;20044;-45
2023/09/02 01:32:22;;;;;;;6.68;2.53;;;;;;;21.67;71.88;98741.69;5093359;28;20604;-45
2023/09/02 01:34:49;;;;;;;6.20;1.88;;;;;;;21.61;71.77;98745.47;5093342;28;20028;-45
2023/09/02 01:37:19;;;;;;;4.22;2.40;;;;;;;21.56;71.84;98738.28;5093214;28;20012;-45
2023/09/02 01:39:47;;;;;;;8.10;2.88;;;;;;;21.47;72.09;98738.03;5091867;28;20069;-45
2023/09/02 01:42:14;;;;;;;6.78;2.53;;;;;;;21.49;72.16;98737.75;5091817;28;20056;-45
2023/09/02 01:44:41;;;;;;;5.95;2.90;;;;;;;21.48;73.02;98744.16;5093166;28;20016;-45
2023/09/02 01:47:08;;;;;;;6.60;3.63;;;;;;;21.60;72.03;98733.97;5090945;28;20023;-45
2023/09/02 01:49:34;;;;;;;5.03;2.97;;;;;;;21.66;71.72;98743.59;5092957;28;20024;-45
2023/09/02 01:52:01;;;;;;;11.68;6.25;;;;;;;21.66;71.11;98740.13;5091643;28;20036;-45
2023/09/02 01:54:27;;;;;;;8.68;3.83;;;;;;;21.71;71.02;98740.91;5092947;28;20501;-45
2023/09/02 01:56:54;;;;;;;6.68;2.97;;;;;;;21.78;70.54;98745.16;5092830;28;20024;-45
2023/09/02 01:59:19;;;;;;;5.70;2.45;;;;;;;21.91;69.48;98742.72;5091440;28;20032;-45
2023/09/02 02:01:45;;;;;;;3.60;1.80;;;;;;;21.90;68.87;98741.09;5092731;28;20023;-45
2023/09/02 02:04:18;;;;;;;3.67;2.25;;;;;;;21.77;69.96;98728.31;5092755;28;20158;-45
2023/09/02 02:06:46;;;;;;;4.90;2.28;;;;;;;21.76;69.21;98739.28;5092773;28;20441;-45
2023/09/02 02:09:24;;;;;;;3.72;2.75;;;;;;;21.69;69.77;98737.72;5092570;28;20024;-45
2023/09/02 02:11:51;;;;;;;8.80;2.60;;;;;;;21.71;69.42;98735.56;5092688;28;20020;-45
2023/09/02 02:14:17;;;;;;;6.10;2.28;;;;;;;21.74;68.50;98737.69;5092120;28;20129;-45
2023/09/02 02:16:42;;;;;;;4.80;2.05;;;;;;;21.61;68.86;98740.94;5092543;28;20555;-45
2023/09/02 02:19:08;;;;;;;3.08;2.00;;;;;;;21.57;69.11;98731.88;5091626;28;20016;-45
2023/09/02 02:21:33;;;;;;;5.20;2.40;;;;;;;21.52;69.07;98742.56;5092322;28;20032;-45
2023/09/02 02:23:59;;;;;;;7.28;2.20;;;;;;;21.53;69.18;98750.31;5092460;28;20079;-45
2023/09/02 02:26:25;;;;;;;8.80;2.60;;;;;;;21.56;68.86;98743.63;5092288;28;20020;-45
2023/09/02 02:28:50;;;;;;;4.07;2.20;;;;;;;21.48;68.66;98747.63;5092357;28;20108;-45
2023/09/02 02:31:16;;;;;;;5.80;2.35;;;;;;;21.38;69.38;98744.94;5092288;28;20038;-45
2023/09/02 02:33:42;;;;;;;6.68;1.73;;;;;;;21.43;68.81;98744.16;5092268;28;20080;-45
2023/09/02 02:36:09;;;;;;;6.53;2.25;;;;;;;21.38;68.90;98738.81;5090876;28;20032;-45
2023/09/02 02:38:36;;;;;;;5.20;2.30;;;;;;;21.45;69.02;98734.84;5092152;28;20024;-45
2023/09/02 02:41:02;;;;;;;5.47;2.38;;;;;;;21.45;68.45;98729.50;5092008;28;20024;-45
2023/09/02 02:43:28;;;;;;;4.80;2.20;;;;;;;21.35;68.93;98724.94;5092074;28;20096;-45
2023/09/02 02:45:54;;;;;;;7.22;2.03;;;;;;;21.42;68.82;98721.97;5092133;28;20016;-45
2023/09/02 02:48:27;;;;;;;7.10;2.00;;;;;;;21.37;68.76;98722.00;5092086;28;20060;-45
2023/09/02 02:50:53;;;;;;;5.70;1.90;;;;;;;21.38;68.39;98720.13;5090706;28;20024;-45
2023/09/02 02:53:18;;;;;;;7.53;2.40;;;;;;;21.39;68.56;98724.38;5090670;28;20135;-45
2023/09/02 02:55:44;;;;;;;7.82;1.90;;;;;;;21.39;68.67;98730.53;5090687;28;20081;-45
2023/09/02 02:58:12;;;;;;;4.93;2.28;;;;;;;21.41;68.17;98725.72;5090360;28;20024;-45
2023/09/02 03:00:39;;;;;;;4.95;2.15;;;;;;;21.24;68.17;98720.66;5090510;28;20161;-45
2023/09/02 03:03:07;;;;;;;6.30;1.90;;;;;;;21.14;68.55;98726.81;5091912;28;20103;-45
2023/09/02 03:05:37;;;;;;;6.47;2.20;;;;;;;21.14;68.38;98729.50;5091827;28;20020;-45
2023/09/02 03:08:04;;;;;;;5.43;2.30;;;;;;;21.15;68.37;98724.97;5091822;28;20141;-45
2023/09/02 03:10:31;;;;;;;5.10;2.30;;;;;;;21.10;68.20;98722.28;5090460;28;20055;-45
2023/09/02 03:12:57;;;;;;;5.60;2.50;;;;;;;21.06;68.65;98734.56;5091782;28;20038;-45
2023/09/02 03:15:23;;;;;;;6.03;2.60;;;;;;;20.95;68.63;98733.78;5092095;28;20413;-45
2023/09/02 03:17:49;;;;;;;7.40;2.05;;;;;;;20.96;69.04;98727.38;5091730;28;20501;-45
2023/09/02 03:20:14;;;;;;;5.38;1.98;;;;;;;21.03;69.01;98727.13;5091638;28;20139;-45
2023/09/02 03:22:41;;;;;;;4.57;2.05;;;;;;;21.12;68.46;98730.84;5090414;28;20493;-45
2023/09/02 03:25:08;;;;;;;5.55;2.00;;;;;;;21.05;68.40;98733.00;5090483;28;20046;-45
2023/09/02 03:27:40;;;;;;;4.28;2.05;;;;;;;20.95;68.37;98726.56;5090344;28;20028;-45
2023/09/02 03:30:08;;;;;;;11.50;2.97;;;;;;;20.95;68.75;98725.78;5091622;28;20104;-45
2023/09/02 03:32:34;;;;;;;12.23;2.83;;;;;;;21.08;68.87;98724.44;5091887;28;20024;-45
2023/09/02 03:35:00;;;;;;;8.13;2.70;;;;;;;21.11;68.09;98729.25;5091581;28;20025;-45
2023/09/02 03:37:26;;;;;;;9.90;2.85;;;;;;;21.01;68.61;98731.94;5091569;28;20103;-45
2023/09/02 03:39:57;;;;;;;9.15;2.20;;;;;;;20.93;68.33;98734.03;5090242;28;20393;-45
2023/09/02 03:42:22;;;;;;;7.05;2.70;;;;;;;20.82;69.13;98736.97;5090101;28;20085;-45
2023/09/02 03:44:48;;;;;;;6.38;2.33;;;;;;;20.82;69.11;98744.97;5091528;28;20020;-45
2023/09/02 03:47:14;;;;;;;9.10;2.28;;;;;;;20.81;69.57;98746.06;5091409;28;20028;-45
2023/09/02 03:49:40;;;;;;;7.22;2.50;;;;;;;20.81;68.97;98743.38;5091553;28;20021;-45
2023/09/02 03:52:06;;;;;;;5.25;2.10;;;;;;;20.67;68.91;98748.44;5090028;28;20409;-45
2023/09/02 03:54:31;;;;;;;6.82;2.10;;;;;;;20.63;69.52;98748.16;5091411;28;20027;-45
2023/09/02 03:56:57;;;;;;;4.93;2.30;;;;;;;20.62;69.46;98751.88;5091348;28;20492;-45
2023/09/02 03:59:23;;;;;;;3.40;2.28;;;;;;;20.60;69.60;98756.69;5091359;28;20510;-45
2023/09/02 04:01:48;;;;;;;7.55;3.03;;;;;;;20.88;70.14;98757.25;5089963;28;20063;-45
2023/09/02 04:04:14;;;;;;;8.85;2.50;;;;;;;21.17;69.01;98751.38;5091205;28;20040;-45
2023/09/02 04:06:40;;;;;;;8.27;2.80;;;;;;;21.35;67.67;98758.84;5091317;28;20478;-45
2023/09/02 04:09:07;;;;;;;5.43;2.55;;;;;;;21.37;67.01;98766.56;5089958;28;20023;-45
2023/09/02 04:11:33;;;;;;;9.52;3.13;;;;;;;21.30;67.42;98764.97;5093963;28;20032;-45
2023/09/02 04:13:59;;;;;;;10.38;3.70;;;;;;;21.34;67.22;98770.59;5093293;28;20048;-45
2023/09/02 04:16:25;;;;;;;6.00;3.13;;;;;;;21.77;67.24;98770.25;5094743;28;20044;-45
2023/09/02 04:18:51;;;;;;;7.47;3.50;;;;;;;22.34;65.52;98769.81;5093501;28;20070;-45
2023/09/02 04:21:17;;;;;;;9.98;3.63;;;;;;;22.73;64.70;98769.03;5093334;28;20652;-45
2023/09/02 04:23:44;;;;;;;12.15;4.00;;;;;;;23.09;63.13;98768.78;5094729;28;20020;-45
2023/09/02 04:26:09;;;;;;;4.50;1.92;;;;;;;23.24;61.72;98765.19;5094626;28;20044;-45
2023/09/02 04:28:35;;;;;;;5.97;2.40;;;;;;;23.01;61.25;98769.38;5093351;28;20113;-45
2023/09/02 04:31:01;;;;;;;16.35;3.20;;;;;;;22.74;62.27;98777.88;5094594;28;20483;-45
2023/09/02 04:33:27;;;;;;;14.88;3.63;;;;;;;23.10;62.20;98777.63;5095131;28;20493;-45
2023/09/02 04:35:53;;;;;;;9.43;3.25;;;;;;;23.43;60.48;98772.53;5094751;28;20397;-45
2023/09/02 04:38:19;;;;;;;8.15;2.72;;;;;;;23.13;59.67;98777.06;5094805;28;20405;-45
2023/09/02 04:40:45;;;;;;;10.27;2.85;;;;;;;22.66;60.19;98789.97;5094448;28;20016;-45
2023/09/02 04:43:13;;;;;;;7.68;2.42;;;;;;;22.16;61.49;98796.34;5093076;28;20024;-45
2023/09/02 04:45:40;;;;;;;4.88;2.50;;;;;;;21.69;63.00;98804.50;5093036;28;20024;-45
2023/09/02 04:48:08;;;;;;;5.97;2.45;;;;;;;21.35;64.00;98807.69;5094284;28;20028;-45
2023/09/02 04:50:34;;;;;;;6.95;3.25;;;;;;;21.06;64.67;98802.06;5094164;28;20031;-45
2023/09/02 04:53:01;;;;;;;6.05;2.67;;;;;;;21.19;65.98;98806.09;5094194;28;20020;-45
2023/09/02 04:55:27;;;;;;;14.30;2.90;;;;;;;21.24;65.51;98802.63;5092804;28;20497;-45
2023/09/02 04:57:54;;;;;;;7.25;2.72;;;;;;;21.38;65.05;98802.91;5094096;28;20107;-45
2023/09/02 05:00:22;;;;;;;9.63;2.85;;;;;;;21.41;64.33;98797.00;5092586;28;20032;-45
2023/09/02 05:02:48;;;;;;;10.30;3.42;;;;;;;21.25;64.98;98804.22;5093931;28;20177;-45
2023/09/02 05:05:16;;;;;;;7.05;2.67;;;;;;;21.19;65.29;98805.28;5092580;28;20549;-45
2023/09/02 05:07:41;;;;;;;9.70;2.88;;;;;;;21.27;64.71;98802.91;5093889;28;20020;-45
2023/09/02 05:10:07;;;;;;;6.15;3.00;;;;;;;21.38;65.18;98808.22;5092506;28;20396;-45
2023/09/02 05:12:33;;;;;;;7.15;2.70;;;;;;;21.64;64.45;98799.16;5092861;28;20032;-45
2023/09/02 05:15:00;;;;;;;11.10;3.10;;;;;;;21.77;63.89;98805.00;5093464;28;20543;-45
2023/09/02 05:17:26;;;;;;;14.40;3.42;;;;;;;21.92;63.93;98810.31;5093608;28;20016;-45
2023/09/02 05:19:51;;;;;;;8.35;2.90;;;;;;;22.30;62.70;98805.41;5093660;28;20560;-45
2023/09/02 05:22:17;;;;;;;9.07;3.00;;;;;;;22.68;60.92;98797.72;5092087;28;20123;-45
2023/09/02 05:24:43;;;;;;;6.68;2.25;;;;;;;23.01;59.75;98800.69;5093567;28;20051;-45
2023/09/02 05:27:09;;;;;;;7.20;2.60;;;;;;;23.26;58.51;98805.88;5093453;28;20012;-45
2023/09/02 05:29:35;;;;;;;4.95;2.17;;;;;;;23.49;57.35;98814.25;5093385;28;20028;-45
2023/09/02 05:32:00;;;;;;;4.40;2.13;;;;;;;23.55;56.76;98806.97;5093377;28;20031;-45
2023/09/02 05:34:26;;;;;;;11.75;2.65;;;;;;;23.60;56.77;98807.69;5093392;28;20024;-45
2023/09/02 05:36:51;;;;;;;9.98;3.10;;;;;;;23.69;56.42;98808.69;5093323;28;20017;-45
2023/09/02 05:39:17;;;;;;;12.48;2.95;;;;;;;23.83;56.72;98805.38;5093239;28;20027;-45
2023/09/02 05:41:46;;;;;;;19.05;8.38;;;;;;;23.73;56.35;98807.03;5091783;28;20539;-45
2023/09/02 05:44:13;;;;;;;14.57;5.50;;;;;;;23.32;57.14;98811.97;5091777;28;20039;-45
2023/09/02 05:46:38;;;;;;;5.90;2.97;;;;;;;23.23;57.91;98813.69;5091785;28;20046;-45
2023/09/02 05:49:04;;;;;;;8.23;2.90;;;;;;;23.32;57.93;98828.03;5091717;28;20024;-45
2023/09/02 05:51:30;;;;;;;13.40;3.45;;;;;;;23.80;57.21;98824.69;5091970;28;20063;-45
2023/09/02 05:53:56;;;;;;;5.53;2.92;;;;;;;24.63;54.20;98826.16;5093005;28;20396;-45
2023/09/02 05:56:21;;;;;;;3.55;2.13;;;;;;;24.73;52.70;98827.91;5092939;28;20458;-45
2023/09/02 05:58:47;;;;;;;4.68;2.58;;;;;;;24.72;53.22;98832.47;5092844;28;20050;-45
2023/09/02 06:01:13;;;;;;;9.88;3.58;;;;;;;24.94;53.10;98822.22;5091427;28;20020;-45
2023/09/02 06:03:38;;;;;;;13.13;3.60;;;;;;;25.25;52.86;98826.06;5092802;28;20058;-45
2023/09/02 06:06:13;;;;;;;10.77;3.00;;;;;;;25.88;51.09;98829.28;5091693;28;20051;-45
2023/09/02 06:08:39;;;;;;;13.27;4.22;;;;;;;26.48;49.92;98831.88;5091422;28;20028;-45
2023/09/02 06:11:06;;;;;;;11.18;3.00;;;;;;;26.90;48.40;98831.78;5092629;28;20077;-46
2023/09/02 06:13:32;;;;;;;25.40;4.70;;;;;;;26.90;47.20;98837.97;5092275;28;20040;-45
2023/09/02 06:16:05;;;;;;;9.07;3.47;;;;;;;27.05;47.29;98831.44;5092501;28;20031;-45
2023/09/02 06:18:32;;;;;;;8.98;2.78;;;;;;;27.28;45.30;98839.53;5092463;28;20512;-45
2023/09/02 06:20:58;;;;;;;7.00;2.40;;;;;;;26.97;45.22;98842.94;5091067;28;20024;-45
2023/09/02 06:23:25;;;;;;;18.55;4.47;;;;;;;26.58;46.26;98843.53;5092752;28;20224;-45
2023/09/02 06:25:58;;;;;;;7.85;3.10;;;;;;;26.68;46.77;98838.75;5092398;28;20038;-45
2023/09/02 06:28:25;;;;;;;5.75;2.55;;;;;;;26.93;45.62;98847.34;5092431;28;20451;-45
2023/09/02 06:30:51;;;;;;;4.78;2.38;;;;;;;27.21;45.48;98860.72;5091006;28;20036;-45
2023/09/02 06:33:19;;;;;;;20.10;4.05;;;;;;;27.78;44.16;98857.44;5091863;28;20027;-45
2023/09/02 06:35:45;;;;;;;8.57;3.45;;;;;;;27.62;44.20;98865.13;5092269;28;20027;-45
2023/09/02 06:38:10;;;;;;;16.50;4.53;;;;;;;28.27;44.08;98855.56;5092216;28;20398;-45
2023/09/02 06:40:36;;;;;;;9.82;2.58;;;;;;;29.33;41.22;98863.50;5091067;28;20028;-45
2023/09/02 06:43:02;;;;;;;15.38;3.53;;;;;;;29.46;40.97;98877.97;5092215;28;20096;-45
2023/09/02 06:45:27;;;;;;;6.95;2.25;;;;;;;29.91;39.89;98891.06;5090830;28;20032;-46
2023/09/02 06:47:53;;;;;;;12.73;3.53;;;;;;;30.31;38.95;98879.16;5090718;28;20459;-46
2023/09/02 06:50:19;;;;;;;9.18;3.05;;;;;;;30.20;38.48;98890.34;5092053;28;20031;-45
2023/09/02 06:52:44;;;;;;;19.65;3.83;;;;;;;29.99;38.66;98892.94;5090741;28;20050;-46
2023/09/02 06:55:10;;;;;;;34.65;4.82;;;;;;;30.56;37.59;98896.38;5091956;28;20485;-46
2023/09/02 06:57:42;;;;;;;5.20;1.95;;;;;;;30.64;36.84;98885.47;5091921;28;20028;-46
2023/09/02 07:00:08;;;;;;;6.32;2.97;;;;;;;30.44;37.15;98881.59;5091833;28;20032;-46
2023/09/02 07:02:34;;;;;;;9.48;2.35;;;;;;;30.41;37.13;98882.28;5090610;28;20414;-45
2023/09/02 07:05:00;;;;;;;14.60;3.17;;;;;;;30.30;37.49;98886.47;5091873;28;20496;-45
2023/09/02 07:07:26;;;;;;;7.70;2.38;;;;;;;30.63;37.11;98891.25;5090897;28;20435;-46
2023/09/02 07:09:52;;;;;;;9.55;2.80;;;;;;;30.59;37.09;98896.50;5090551;28;20546;-46
2023/09/02 07:12:18;;;;;;;6.63;2.80;;;;;;;30.61;36.77;98902.41;5091761;28;20035;-46
2023/09/02 07:14:43;;;;;;;9.52;3.47;;;;;;;30.99;36.72;98903.47;5091472;28;20040;-46
2023/09/02 07:17:09;;;;;;;7.88;2.72;;;;;;;31.35;36.12;98910.16;5090451;28;20020;-46
2023/09/02 07:19:35;;;;;;;4.03;2.20;;;;;;;31.50;34.87;98914.22;5090380;28;20435;-46
2023/09/02 07:22:00;;;;;;;12.30;2.75;;;;;;;31.28;35.71;98912.63;5073533;28;20059;-46
2023/09/02 07:24:26;;;;;;;12.10;2.85;;;;;;;31.53;35.54;98910.81;5091693;28;20020;-46
2023/09/02 07:26:52;;;;;;;6.60;2.22;;;;;;;31.65;34.95;98902.69;5090439;28;20020;-46
2023/09/02 07:29:17;;;;;;;5.68;2.70;;;;;;;32.19;34.18;98927.03;5090337;28;20028;-46
2023/09/02 07:31:43;;;;;;;11.77;2.88;;;;;;;32.69;33.58;98913.47;5091637;28;20020;-46
2023/09/02 07:34:10;;;;;;;6.18;2.00;;;;;;;33.21;32.43;98910.75;5091597;28;20077;-46
2023/09/02 07:36:36;;;;;;;7.75;2.25;;;;;;;33.76;31.74;98916.50;5091887;28;20103;-46
2023/09/02 07:39:01;;;;;;;5.97;1.98;;;;;;;33.55;31.87;98913.22;5091547;28;20115;-46
2023/09/02 07:41:27;;;;;;;7.93;2.38;;;;;;;33.37;32.68;98910.00;5091441;28;20074;-46
2023/09/02 07:43:53;;;;;;;6.25;2.17;;;;;;;33.56;31.84;98917.50;5091786;28;20052;-46
2023/09/02 07:46:18;;;;;;;5.93;2.47;;;;;;;33.91;31.82;98909.50;5094054;28;20510;-46
2023/09/02 07:48:45;;;;;;;10.57;2.67;;;;;;;34.58;31.04;98912.28;5095443;28;20556;-46
2023/09/02 07:51:11;;;;;;;3.78;2.05;;;;;;;35.18;29.81;98906.56;5095340;28;20024;-46
2023/09/02 07:53:37;;;;;;;7.63;2.50;;;;;;;35.25;29.48;98918.78;5093998;28;20027;-46
2023/09/02 07:56:03;;;;;;;5.03;1.90;;;;;;;35.58;29.19;98905.38;5093904;28;20032;-46
2023/09/02 07:58:29;;;;;;;4.55;1.80;;;;;;;35.85;28.54;98907.41;5095225;28;20036;-46
2023/09/02 08:00:58;;;;;;;6.15;2.15;;;;;;;36.18;27.96;98910.34;5095030;28;20032;-46
2023/09/02 08:03:24;;;;;;;8.90;2.33;;;;;;;36.11;28.28;98904.72;5095076;28;20035;-46
2023/09/02 08:05:50;;;;;;;13.40;3.15;;;;;;;36.53;28.13;98903.03;5095029;28;20375;-46
2023/09/02 08:08:15;;;;;;;4.72;1.85;;;;;;;36.61;26.92;98899.25;5095056;28;20590;-46
2023/09/02 08:10:41;;;;;;;10.73;2.17;;;;;;;36.43;28.07;98904.47;5094969;28;20510;-46
2023/09/02 08:13:07;;;;;;;5.97;2.00;;;;;;;36.73;27.28;98907.25;5094586;28;20028;-46
2023/09/02 08:15:38;;;;;;;6.95;2.00;;;;;;;36.75;26.57;98909.63;5094014;28;20477;-46
2023/09/02 08:18:07;;;;;;;8.50;2.33;;;;;;;36.72;26.95;98905.66;5094743;28;20107;-46
2023/09/02 08:20:39;;;;;;;5.32;2.05;;;;;;;36.60;26.55;98908.59;5094635;28;20028;-46
2023/09/02 08:23:06;;;;;;;4.50;1.60;;;;;;;36.71;26.76;98909.56;5093653;28;20119;-46
2023/09/02 08:25:33;;;;;;;3.80;1.60;;;;;;;36.81;26.94;98904.63;5094745;28;20027;-46
2023/09/02 08:28:02;;;;;;;12.85;3.13;;;;;;;36.87;27.15;98901.19;5094602;28;20020;-46
2023/09/02 08:30:30;;;;;;;6.78;2.17;;;;;;;37.24;26.18;98895.00;5093309;28;20024;-46
2023/09/02 08:32:58;;;;;;;13.85;3.33;;;;;;;37.34;26.30;98888.06;5094488;28;20031;-46
2023/09/02 08:35:27;;;;;;;5.70;2.85;;;;;;;37.91;25.42;98885.88;5094424;28;20050;-46
2023/09/02 08:37:57;;;;;;;4.57;1.80;;;;;;;38.45;24.89;98885.47;5094457;28;20039;-46
2023/09/02 08:40:25;;;;;;;8.70;2.45;;;;;;;38.45;24.50;98888.22;5094149;28;20248;-46
2023/09/02 08:42:52;;;;;;;22.13;4.63;;;;;;;38.05;25.00;98884.41;5094328;28;20070;-46
2023/09/02 08:45:22;;;;;;;6.07;1.95;;;;;;;37.78;24.69;98879.88;5094327;28;20030;-47
2023/09/02 08:47:53;;;;;;;4.75;2.03;;;;;;;37.50;25.10;98882.34;5094296;28;20058;-46
2023/09/02 08:50:20;;;;;;;13.75;3.20;;;;;;;37.75;25.87;98879.84;5094260;28;20036;-46
2023/09/02 08:52:46;;;;;;;7.15;2.10;;;;;;;38.30;25.02;98879.13;5092859;28;20016;-46
2023/09/02 08:55:14;;;;;;;6.03;2.05;;;;;;;38.13;25.12;98884.13;5094074;28;20031;-47
2023/09/02 08:57:39;;;;;;;5.85;2.00;;;;;;;37.73;24.81;98890.41;5092392;28;20057;-47
2023/09/02 09:00:06;;;;;;;5.78;1.83;;;;;;;36.38;26.18;98889.19;5094027;28;20107;-46
2023/09/02 09:02:34;;;;;;;6.38;2.35;;;;;;;35.28;27.71;98885.31;5092565;28;20020;-46
2023/09/02 09:05:02;;;;;;;5.00;1.88;;;;;;;34.78;28.62;98899.50;5093997;28;20103;-46
2023/09/02 09:07:29;;;;;;;8.77;2.22;;;;;;;34.61;28.80;98891.69;5093847;28;20020;-46
2023/09/02 09:09:59;;;;;;;4.28;1.90;;;;;;;34.67;28.49;98895.75;5093823;28;20024;-46
2023/09/02 09:12:28;;;;;;;7.75;3.00;;;;;;;34.97;29.02;98882.38;5093712;28;20028;-46
2023/09/02 09:14:55;;;;;;;6.30;1.98;;;;;;;35.71;27.81;98891.56;5093493;28;20044;-46
2023/09/02 09:17:22;;;;;;;6.10;1.90;;;;;;;36.56;26.15;98885.88;5093905;28;20389;-46
2023/09/02 09:19:48;;;;;;;4.93;1.90;;;;;;;36.83;26.05;98888.63;5093893;28;20487;-46
2023/09/02 09:22:14;;;;;;;8.55;2.35;;;;;;;36.86;25.87;98888.66;5093522;28;20024;-46
2023/09/02 09:24:40;;;;;;;12.40;4.07;;;;;;;37.27;25.97;98887.97;5093568;28;20050;-46
2023/09/02 09:27:06;;;;;;;10.57;2.92;;;;;;;37.57;25.04;98882.44;5093810;28;20023;-46
2023/09/02 09:29:42;;;;;;;12.85;3.50;;;;;;;37.96;24.49;98882.78;5093501;28;20024;-46
2023/09/02 09:32:12;;;;;;;5.43;2.05;;;;;;;38.42;24.11;98891.75;5093466;28;20023;-47
2023/09/02 09:34:41;;;;;;;9.25;1.90;;;;;;;38.78;24.03;98881.78;5093401;28;20024;-46
2023/09/02 09:37:08;;;;;;;5.47;1.80;;;;;;;38.99;23.25;98888.53;5091958;28;20028;-46
2023/09/02 09:39:43;;;;;;;4.13;2.22;;;;;;;37.70;24.34;98885.69;5093238;28;20028;-46
2023/09/02 09:42:11;;;;;;;9.95;2.20;;;;;;;36.93;26.04;98883.28;5093045;28;20050;-46
2023/09/02 09:44:58;;;;;;;8.30;2.38;;;;;;;37.13;25.72;98881.19;5093232;28;20020;-46
2023/09/02 09:47:26;;;;;;;5.95;2.40;;;;;;;37.80;25.26;98882.25;5091718;28;20024;-46
2023/09/02 09:49:52;;;;;;;7.55;2.30;;;;;;;38.16;24.50;98886.09;5091800;28;20078;-46
2023/09/02 09:52:21;;;;;;;5.57;2.83;;;;;;;38.40;24.49;98883.91;5093014;28;20111;-47
2023/09/02 09:54:49;;;;;;;4.22;2.13;;;;;;;39.04;23.57;98886.22;5091929;28;20028;-47
2023/09/02 09:57:34;;;;;;;4.10;1.80;;;;;;;38.92;23.54;98883.78;5092869;28;20052;-46
2023/09/02 10:00:00;;;;;;;4.57;1.95;;;;;;;38.23;23.86;98882.59;5092902;28;20032;-46
2023/09/02 10:02:26;;;;;;;5.72;2.35;;;;;;;38.17;23.67;98884.94;5092776;28;20020;-46
2023/09/02 10:04:56;;;;;;;4.60;1.95;;;;;;;37.46;24.72;98873.31;5092730;28;20025;-46
2023/09/02 10:07:27;;;;;;;4.43;2.70;;;;;;;37.12;25.01;98896.03;5092368;28;20043;-46
2023/09/02 10:09:55;;;;;;;7.40;2.65;;;;;;;36.77;25.70;98888.16;5091054;28;20043;-46
2023/09/02 10:12:21;;;;;;;3.85;2.25;;;;;;;37.01;25.17;98891.56;5092653;28;20024;-47
2023/09/02 10:14:49;;;;;;;9.38;2.28;;;;;;;36.73;25.42;98898.28;5092391;28;20390;-46
2023/09/02 10:17:17;;;;;;;12.00;3.53;;;;;;;36.69;25.57;98890.00;5092779;28;20087;-46
2023/09/02 10:19:44;;;;;;;9.23;2.63;;;;;;;37.16;25.26;98880.44;5091241;28;20043;-46
2023/09/02 10:22:18;;;;;;;8.00;2.95;;;;;;;37.80;24.81;98879.53;5091066;28;20032;-46
2023/09/02 10:24:56;;;;;;;7.53;2.72;;;;;;;38.07;24.15;98879.34;5092585;28;20047;-47
2023/09/02 10:27:24;;;;;;;4.35;1.88;;;;;;;38.23;23.67;98879.84;5091119;28;20035;-47
2023/09/02 10:30:01;;;;;;;5.47;2.25;;;;;;;38.19;24.01;98878.28;5091048;28;20031;-47
2023/09/02 10:32:37;;;;;;;3.65;2.10;;;;;;;38.29;23.33;98892.03;5092407;28;20453;-47
2023/09/02 10:35:13;;;;;;;7.20;2.40;;;;;;;38.06;23.74;98891.50;5092386;28;20031;-47
2023/09/02 10:37:46;;;;;;;6.38;2.30;;;;;;;37.54;24.18;98888.66;5092633;28;20099;-47
2023/09/02 10:40:19;;;;;;;3.38;2.00;;;;;;;37.75;24.24;98879.84;5090959;28;20031;-46
2023/09/02 10:42:47;;;;;;;7.50;2.47;;;;;;;38.20;23.40;98890.81;5092276;28;20032;-46
2023/09/02 10:45:13;;;;;;;5.43;1.88;;;;;;;38.48;22.76;98888.25;5092084;28;20028;-46
2023/09/02 10:47:39;;;;;;;6.10;1.80;;;;;;;38.41;21.63;98892.91;5092151;28;20024;-47
2023/09/02 10:50:08;;;;;;;19.08;3.90;;;;;;;38.49;22.29;98891.78;5091983;28;20040;-47
2023/09/02 10:52:34;;;;;;;5.93;2.10;;;;;;;38.75;21.55;98888.03;5092061;28;20024;-46
2023/09/02 10:55:02;;;;;;;8.18;2.33;;;;;;;38.70;22.19;98883.69;5092019;28;20077;-46
2023/09/02 10:57:32;;;;;;;6.60;2.72;;;;;;;38.68;22.71;98877.81;5092242;28;20551;-47
2023/09/02 11:00:18;;;;;;;6.05;2.17;;;;;;;38.78;22.32;98891.94;5091970;28;20030;-47
2023/09/02 11:02:46;;;;;;;4.22;1.63;;;;;;;38.79;21.67;98896.28;5091880;28;20073;-46
2023/09/02 11:05:12;;;;;;;5.30;2.08;;;;;;;38.42;22.08;98894.50;5091869;28;20027;-47
2023/09/02 11:07:42;;;;;;;7.20;2.50;;;;;;;38.41;22.37;98899.16;5091935;28;20020;-46
2023/09/02 11:10:09;;;;;;;3.33;2.03;;;;;;;39.00;21.89;98899.16;5091826;28;20024;-47
2023/09/02 11:12:55;;;;;;;13.23;2.88;;;;;;;38.90;21.27;98883.41;5091827;28;20064;-46
2023/09/02 11:15:20;;;;;;;3.83;1.90;;;;;;;38.65;21.85;98892.28;5091699;28;20056;-47
2023/09/02 11:17:46;;;;;;;5.63;1.95;;;;;;;38.68;21.75;98907.97;5090488;28;20123;-47
2023/09/02 11:20:13;;;;;;;6.07;2.15;;;;;;;38.14;22.45;98904.09;5094220;28;20481;-47
2023/09/02 11:22:54;;;;;;;8.88;2.33;;;;;;;38.06;22.53;98900.50;5094558;28;20028;-47
2023/09/02 11:25:31;;;;;;;7.35;2.60;;;;;;;38.26;22.03;98883.81;5095842;28;20028;-47
2023/09/02 11:28:00;;;;;;;2.03;1.50;;;;;;;38.49;21.82;98891.78;5094532;28;20118;-46
2023/09/02 11:30:27;;;;;;;4.80;1.63;;;;;;;38.76;21.63;98895.88;5094461;28;20024;-47
2023/09/02 11:32:54;;;;;;;5.15;1.55;;;;;;;38.80;20.88;98895.09;5094471;28;20051;-46